createdAt,value
2019-01-31T00:01:33.199Z,71.83
2019-01-31T00:04:56.627Z,71.83
2019-01-31T00:07:45.645Z,71.68
2019-01-31T00:11:09.565Z,71.63
2019-01-31T00:14:13.967Z,71.68
2019-01-31T00:16:55.839Z,71.63
2019-01-31T00:19:34.399Z,71.59
2019-01-31T00:22:41.307Z,71.62
2019-01-31T00:25:29.718Z,71.59
2019-01-31T00:28:44.318Z,71.54
2019-01-31T00:31:37.644Z,71.51
2019-01-31T00:34:57.802Z,71.57
2019-01-31T00:37:43.032Z,71.56
2019-01-31T00:40:53.309Z,71.56
2019-01-31T00:44:11.328Z,71.57
2019-01-31T00:47:27.035Z,71.54
2019-01-31T00:50:32.131Z,71.48
2019-01-31T00:53:37.052Z,71.48
2019-01-31T00:56:55.124Z,71.42
2019-01-31T00:59:57.137Z,71.41
2019-01-31T01:02:46.764Z,71.47
2019-01-31T01:05:40.858Z,71.48
2019-01-31T01:08:46.884Z,71.30
2019-01-31T01:11:46.474Z,71.40
2019-01-31T01:14:54.096Z,71.37
2019-01-31T01:17:37.835Z,71.21
2019-01-31T01:20:21.517Z,71.41
2019-01-31T01:23:30.801Z,71.45
2019-01-31T01:26:55.036Z,71.51
2019-01-31T01:29:46.192Z,71.40
2019-01-31T01:32:50.027Z,71.44
2019-01-31T01:35:47.896Z,71.46
2019-01-31T01:38:41.428Z,71.54
2019-01-31T01:41:54.496Z,71.60
2019-01-31T01:44:36.305Z,71.65
2019-01-31T01:47:17.575Z,71.67
2019-01-31T01:49:52.127Z,71.77
2019-01-31T01:52:47.786Z,71.69
2019-01-31T01:55:52.272Z,71.74
2019-01-31T01:58:29.314Z,71.54
2019-01-31T02:01:36.893Z,71.75
2019-01-31T02:11:01.740Z,71.82
2019-01-31T02:14:09.022Z,71.85
2019-01-31T02:17:03.480Z,71.83
2019-01-31T02:20:12.794Z,71.64
2019-01-31T02:47:20.392Z,71.79
2019-01-31T02:50:34.884Z,71.96
2019-01-31T02:53:26.074Z,71.80
2019-01-31T02:56:04.779Z,71.88
2019-01-31T02:59:06.956Z,71.85
2019-01-31T03:02:24.671Z,71.88
2019-01-31T03:05:21.378Z,71.87
2019-01-31T03:08:44.406Z,71.92
2019-01-31T03:11:20.867Z,72.02
2019-01-31T03:14:28.888Z,72.07
2019-01-31T03:17:45.623Z,72.15
2019-01-31T03:20:44.254Z,72.18
2019-01-31T03:23:48.768Z,72.24
2019-01-31T03:26:49.080Z,72.32
2019-01-31T03:29:37.483Z,72.27
2019-01-31T03:32:37.325Z,72.39
2019-01-31T03:35:38.232Z,72.37
2019-01-31T03:38:43.654Z,72.50
2019-01-31T03:41:31.136Z,72.52
2019-01-31T03:44:12.880Z,72.51
2019-01-31T03:47:21.833Z,72.50
2019-01-31T03:50:00.931Z,72.67
2019-01-31T03:53:12.953Z,72.71
2019-01-31T03:56:04.961Z,72.72
2019-01-31T03:59:14.463Z,72.71
2019-01-31T04:02:15.661Z,72.70
2019-01-31T04:05:32.942Z,72.71
2019-01-31T04:08:00.143Z,72.76
2019-01-31T04:10:29.685Z,72.76
2019-01-31T04:12:56.938Z,72.76
2019-01-31T04:15:24.161Z,72.73
2019-01-31T04:17:51.389Z,73.07
2019-01-31T04:20:18.628Z,72.91
2019-01-31T04:22:45.852Z,73.05
2019-01-31T04:25:13.069Z,72.98
2019-01-31T04:27:40.310Z,73.10
2019-01-31T04:30:10.527Z,73.31
2019-01-31T04:32:37.759Z,73.42
2019-01-31T04:35:05.255Z,73.57
2019-01-31T04:37:32.479Z,73.67
2019-01-31T04:39:59.711Z,73.67
2019-01-31T04:42:26.955Z,73.91
2019-01-31T04:44:54.195Z,73.90
2019-01-31T04:47:21.432Z,73.95
2019-01-31T04:49:48.725Z,74.02
2019-01-31T04:52:15.922Z,73.82
2019-01-31T04:54:43.211Z,74.12
2019-01-31T04:57:10.451Z,74.12
2019-01-31T04:59:37.673Z,74.18
2019-01-31T05:02:04.908Z,73.82
2019-01-31T05:04:32.185Z,74.09
2019-01-31T05:06:59.404Z,74.16
2019-01-31T05:09:26.683Z,74.21
2019-01-31T05:11:54.011Z,74.29
2019-01-31T05:14:21.228Z,74.50
2019-01-31T05:16:48.452Z,74.46
2019-01-31T05:19:15.709Z,74.66
2019-01-31T05:21:42.897Z,74.95
2019-01-31T05:24:10.121Z,74.90
2019-01-31T05:26:37.401Z,74.85
2019-01-31T05:29:04.617Z,74.83
2019-01-31T05:31:31.833Z,74.96
2019-01-31T05:33:59.088Z,75.09
2019-01-31T05:36:26.307Z,75.15
2019-01-31T05:38:53.518Z,75.12
2019-01-31T05:41:20.788Z,75.17
2019-01-31T05:43:48.005Z,75.28
2019-01-31T05:46:18.292Z,75.28
2019-01-31T05:48:44.371Z,75.31
2019-01-31T05:51:11.665Z,75.54
2019-01-31T05:53:38.878Z,75.46
2019-01-31T05:56:06.154Z,74.80
2019-01-31T05:58:33.377Z,75.51
2019-01-31T06:01:00.578Z,75.55
2019-01-31T06:03:27.829Z,75.50
2019-01-31T06:05:55.107Z,75.37
2019-01-31T06:08:22.349Z,75.39
2019-01-31T06:10:49.571Z,75.43
2019-01-31T06:13:16.886Z,75.43
2019-01-31T06:15:44.122Z,75.72
2019-01-31T06:18:11.354Z,76.24
2019-01-31T06:20:38.605Z,76.44
2019-01-31T06:23:05.818Z,76.58
2019-01-31T06:25:33.040Z,76.40
2019-01-31T06:28:00.309Z,76.55
2019-01-31T06:30:30.242Z,76.88
2019-01-31T06:32:57.459Z,76.89
2019-01-31T06:35:24.717Z,76.73
2019-01-31T06:37:51.955Z,76.83
2019-01-31T06:40:19.460Z,76.67
2019-01-31T06:42:46.927Z,76.70
2019-01-31T06:45:16.398Z,76.96
2019-01-31T06:47:43.608Z,76.82
2019-01-31T06:50:10.860Z,76.63
2019-01-31T06:52:38.284Z,76.90
2019-01-31T06:55:05.886Z,77.20
2019-01-31T06:57:33.147Z,76.87
2019-01-31T07:00:00.341Z,76.79
2019-01-31T07:02:27.559Z,76.90
2019-01-31T07:04:54.822Z,77.22
2019-01-31T07:07:22.076Z,77.30
2019-01-31T07:09:49.332Z,77.30
2019-01-31T07:12:16.551Z,77.40
2019-01-31T07:14:44.604Z,77.42
2019-01-31T07:17:11.881Z,77.32
2019-01-31T07:19:39.098Z,77.59
2019-01-31T07:22:06.434Z,77.77
2019-01-31T07:24:33.698Z,78.01
2019-01-31T07:27:00.909Z,77.94
2019-01-31T07:29:28.144Z,77.91
2019-01-31T07:31:55.413Z,78.27
2019-01-31T07:34:22.632Z,78.46
2019-01-31T07:36:49.858Z,78.48
2019-01-31T07:39:17.115Z,78.21
2019-01-31T07:41:44.330Z,78.11
2019-01-31T07:44:11.547Z,77.97
2019-01-31T07:46:38.827Z,78.55
2019-01-31T07:49:06.226Z,78.33
2019-01-31T07:51:33.521Z,78.28
2019-01-31T07:54:00.748Z,78.21
2019-01-31T07:56:27.980Z,78.45
2019-01-31T07:58:55.238Z,78.24
2019-01-31T08:01:22.460Z,78.38
2019-01-31T08:03:49.686Z,78.33
2019-01-31T08:06:16.938Z,78.75
2019-01-31T08:08:44.157Z,78.41
2019-01-31T08:11:11.375Z,78.37
2019-01-31T08:13:38.629Z,78.80
2019-01-31T08:16:05.833Z,78.27
2019-01-31T08:18:33.157Z,77.99
2019-01-31T08:21:00.418Z,78.17
2019-01-31T08:23:27.628Z,78.00
2019-01-31T08:25:54.846Z,77.83
2019-01-31T08:28:22.132Z,77.83
2019-01-31T08:30:49.468Z,78.07
2019-01-31T08:33:16.683Z,77.95
2019-01-31T08:35:43.934Z,77.95
2019-01-31T08:38:11.177Z,77.67
2019-01-31T08:40:38.399Z,77.85
2019-01-31T08:43:05.659Z,77.51
2019-01-31T08:45:32.912Z,77.72
2019-01-31T08:48:00.131Z,77.82
2019-01-31T08:50:27.958Z,77.71
2019-01-31T08:52:55.321Z,77.77
2019-01-31T08:55:22.549Z,77.67
2019-01-31T08:57:49.775Z,77.62
2019-01-31T09:00:20.064Z,77.68
2019-01-31T09:02:47.349Z,77.55
2019-01-31T09:05:14.684Z,77.39
2019-01-31T09:07:41.928Z,77.58
2019-01-31T09:10:13.121Z,77.29
2019-01-31T09:12:40.330Z,77.23
2019-01-31T09:15:08.301Z,76.86
2019-01-31T09:17:35.557Z,76.86
2019-01-31T09:20:03.757Z,76.60
2019-01-31T09:22:40.108Z,76.63
2019-01-31T09:25:46.640Z,76.58
2019-01-31T09:28:33.186Z,76.46
2019-01-31T09:31:38.030Z,76.87
2019-01-31T09:34:49.458Z,76.83
2019-01-31T09:38:03.549Z,76.48
2019-01-31T09:41:15.280Z,76.23
2019-01-31T09:44:42.696Z,76.55
2019-01-31T09:47:50.743Z,76.02
2019-01-31T09:50:45.201Z,75.86
2019-01-31T09:53:41.919Z,75.62
2019-01-31T09:56:55.948Z,75.52
2019-01-31T09:59:44.047Z,75.52
2019-01-31T10:02:55.101Z,75.76
2019-01-31T10:06:18.380Z,75.45
2019-01-31T10:09:21.450Z,75.51
2019-01-31T10:12:38.184Z,75.50
2019-01-31T10:15:38.148Z,75.87
2019-01-31T10:18:36.070Z,75.95
2019-01-31T10:21:33.552Z,75.02
2019-01-31T10:24:36.971Z,74.84
2019-01-31T10:27:48.891Z,75.02
2019-01-31T10:30:56.244Z,75.07
2019-01-31T10:34:23.645Z,74.77
2019-01-31T10:37:20.182Z,74.67
2019-01-31T10:39:56.616Z,74.87
2019-01-31T10:42:32.306Z,74.85
2019-01-31T10:45:49.331Z,74.21
2019-01-31T10:48:48.455Z,75.58
2019-01-31T10:52:09.500Z,74.79
2019-01-31T10:55:06.300Z,74.52
2019-01-31T10:58:08.730Z,74.47
2019-01-31T11:01:36.002Z,74.46
2019-01-31T11:04:47.599Z,74.78
2019-01-31T11:08:02.557Z,74.65
2019-01-31T11:10:51.093Z,74.62
2019-01-31T11:13:54.348Z,74.53
2019-01-31T11:16:56.866Z,75.20
2019-01-31T11:19:38.963Z,74.29
2019-01-31T11:22:53.987Z,74.25
2019-01-31T11:26:05.745Z,74.10
2019-01-31T11:29:10.434Z,73.98
2019-01-31T11:32:11.817Z,74.11
2019-01-31T11:35:15.398Z,74.03
2019-01-31T11:38:05.784Z,73.70
2019-01-31T11:41:10.669Z,74.00
2019-01-31T11:44:29.653Z,73.97
2019-01-31T11:47:20.457Z,73.65
2019-01-31T11:50:08.833Z,73.40
2019-01-31T11:52:50.712Z,73.54
2019-01-31T11:55:48.746Z,73.31
2019-01-31T11:58:42.885Z,73.35
2019-01-31T12:01:10.432Z,73.52
2019-01-31T12:03:38.084Z,72.84
2019-01-31T12:06:05.437Z,72.99
2019-01-31T12:08:32.658Z,72.81
2019-01-31T12:10:59.858Z,72.30
2019-01-31T12:13:27.132Z,72.01
2019-01-31T12:15:54.348Z,72.02
2019-01-31T12:18:21.553Z,71.93
2019-01-31T12:20:48.851Z,71.78
2019-01-31T12:23:16.081Z,71.82
2019-01-31T12:25:43.322Z,71.63
2019-01-31T12:28:10.679Z,72.04
2019-01-31T12:30:37.918Z,71.52
2019-01-31T12:33:05.145Z,71.37
2019-01-31T12:35:32.396Z,71.15
2019-01-31T12:37:59.618Z,71.15
2019-01-31T12:40:26.936Z,70.83
2019-01-31T12:42:54.195Z,71.34
2019-01-31T12:45:21.529Z,71.89
2019-01-31T12:47:48.772Z,70.89
2019-01-31T12:50:22.018Z,70.16
2019-01-31T12:52:49.336Z,69.91
2019-01-31T12:55:16.574Z,69.40
2019-01-31T12:57:44.768Z,69.64
2019-01-31T13:00:16.849Z,69.71
2019-01-31T13:02:44.068Z,69.73
2019-01-31T13:05:12.738Z,69.71
2019-01-31T13:07:40.968Z,69.46
2019-01-31T13:10:08.629Z,69.19
2019-01-31T13:12:35.853Z,69.49
2019-01-31T13:15:03.838Z,68.95
2019-01-31T13:17:31.277Z,69.22
2019-01-31T13:19:58.525Z,69.17
2019-01-31T13:22:25.743Z,69.43
2019-01-31T13:24:52.997Z,69.07
2019-01-31T13:27:20.203Z,69.26
2019-01-31T13:29:47.425Z,68.87
2019-01-31T13:32:14.686Z,68.85
2019-01-31T13:34:41.934Z,68.64
2019-01-31T13:37:09.266Z,68.58
2019-01-31T13:39:36.542Z,68.68
2019-01-31T13:42:04.045Z,68.68
2019-01-31T13:44:31.352Z,68.59
2019-01-31T13:46:58.712Z,68.54
2019-01-31T13:49:25.935Z,68.22
2019-01-31T13:51:53.196Z,68.22
2019-01-31T13:54:20.473Z,68.46
2019-01-31T13:56:47.695Z,68.44
2019-01-31T13:59:14.957Z,68.15
2019-01-31T14:01:42.236Z,68.33
2019-01-31T14:04:09.461Z,68.79
2019-01-31T14:06:36.713Z,68.44
2019-01-31T14:09:07.583Z,68.54
2019-01-31T14:11:34.812Z,68.65
2019-01-31T14:14:08.738Z,68.89
2019-01-31T14:16:31.217Z,68.86
2019-01-31T14:18:58.469Z,68.76
2019-01-31T14:21:25.711Z,69.52
2019-01-31T14:23:53.416Z,68.80
2019-01-31T14:26:20.626Z,68.54
2019-01-31T14:28:47.906Z,68.63
2019-01-31T14:31:15.326Z,68.65
2019-01-31T14:33:42.549Z,68.85
2019-01-31T14:36:09.795Z,68.43
2019-01-31T14:38:37.022Z,68.36
2019-01-31T14:41:04.358Z,68.80
2019-01-31T14:43:31.578Z,69.07
2019-01-31T14:45:58.812Z,69.03
2019-01-31T14:48:26.038Z,68.85
2019-01-31T14:50:53.343Z,68.64
2019-01-31T14:53:20.606Z,68.61
2019-01-31T14:55:47.820Z,68.65
2019-01-31T14:58:15.155Z,68.86
2019-01-31T15:00:42.375Z,68.74
2019-01-31T15:03:09.647Z,68.52
2019-01-31T15:05:37.068Z,68.28
2019-01-31T15:08:04.780Z,68.72
2019-01-31T15:10:32.157Z,68.58
2019-01-31T15:12:59.387Z,68.62
2019-01-31T15:15:26.618Z,68.52
2019-01-31T15:17:54.000Z,68.67
2019-01-31T15:20:35.796Z,68.76
2019-01-31T15:22:55.442Z,69.16
2019-01-31T15:25:22.796Z,69.14
2019-01-31T15:27:50.173Z,68.95
2019-01-31T15:30:20.763Z,69.04
2019-01-31T15:32:48.012Z,68.82
2019-01-31T15:35:16.645Z,68.64
2019-01-31T15:37:43.916Z,68.85
2019-01-31T15:40:15.455Z,68.85
2019-01-31T15:42:42.664Z,68.63
2019-01-31T15:45:10.216Z,69.06
2019-01-31T15:47:37.437Z,69.02
2019-01-31T15:50:06.429Z,68.75
2019-01-31T15:52:33.804Z,69.00
2019-01-31T15:55:01.084Z,68.89
2019-01-31T15:57:28.317Z,67.33
2019-01-31T15:59:55.542Z,69.13
2019-01-31T16:02:22.773Z,69.39
2019-01-31T16:04:50.036Z,69.36
2019-01-31T16:07:17.260Z,69.83
2019-01-31T16:09:44.489Z,69.99
2019-01-31T16:12:12.070Z,69.19
2019-01-31T16:14:39.424Z,69.99
2019-01-31T16:17:06.806Z,69.83
2019-01-31T16:19:34.071Z,69.93
2019-01-31T16:22:01.285Z,70.53
2019-01-31T16:24:28.505Z,69.94
2019-01-31T16:26:55.797Z,69.52
2019-01-31T16:29:23.041Z,69.71
2019-01-31T16:31:50.519Z,70.01
2019-01-31T16:34:17.789Z,69.00
2019-01-31T16:36:45.103Z,69.72
2019-01-31T16:39:12.358Z,69.51
2019-01-31T16:41:39.579Z,69.65
2019-01-31T16:44:07.183Z,69.53
2019-01-31T16:46:36.480Z,69.49
2019-01-31T16:49:03.980Z,69.46
2019-01-31T16:51:31.387Z,69.51
2019-01-31T16:53:58.669Z,69.43
2019-01-31T16:56:25.939Z,69.12
2019-01-31T16:58:53.755Z,69.46
2019-01-31T17:01:20.955Z,69.41
2019-01-31T17:03:48.210Z,70.20
2019-01-31T17:06:15.413Z,70.36
2019-01-31T17:08:42.655Z,70.44
2019-01-31T17:11:09.856Z,70.72
2019-01-31T17:13:37.062Z,70.78
2019-01-31T17:16:04.330Z,70.14
2019-01-31T17:18:31.530Z,69.92
2019-01-31T17:20:58.752Z,70.00
2019-01-31T17:23:26.012Z,69.94
2019-01-31T17:25:53.241Z,70.16
2019-01-31T17:28:20.453Z,70.02
2019-01-31T17:30:47.742Z,70.18
2019-01-31T17:33:14.973Z,70.52
2019-01-31T17:35:42.215Z,70.75
2019-01-31T17:38:09.655Z,70.17
2019-01-31T17:40:38.735Z,71.01
2019-01-31T17:43:07.145Z,70.94
2019-01-31T17:45:34.355Z,70.73
2019-01-31T17:48:01.690Z,70.48
2019-01-31T17:50:28.920Z,70.31
2019-01-31T17:52:56.328Z,70.13
2019-01-31T17:55:23.799Z,70.14
2019-01-31T17:57:51.327Z,70.04
2019-01-31T18:00:24.657Z,69.97
2019-01-31T18:02:51.909Z,69.64
2019-01-31T18:05:19.125Z,69.55
2019-01-31T18:07:46.371Z,69.50
2019-01-31T18:10:16.426Z,69.22
2019-01-31T18:12:43.740Z,68.79
2019-01-31T18:15:11.638Z,68.95
2019-01-31T18:17:38.911Z,68.96
2019-01-31T18:20:07.458Z,68.99
2019-01-31T18:22:34.672Z,68.99
2019-01-31T18:25:01.943Z,68.79
2019-01-31T18:27:29.165Z,69.09
2019-01-31T18:29:59.197Z,69.22
2019-01-31T18:32:26.481Z,69.18
2019-01-31T18:34:53.742Z,69.32
2019-01-31T18:37:20.985Z,69.55
2019-01-31T18:39:48.222Z,69.76
2019-01-31T18:42:15.566Z,70.41
2019-01-31T18:44:43.750Z,70.86
2019-01-31T18:47:11.124Z,70.62
2019-01-31T18:49:38.397Z,70.48
2019-01-31T18:52:05.698Z,70.38
2019-01-31T18:54:32.932Z,70.41
2019-01-31T18:57:00.182Z,70.69
2019-01-31T18:59:27.433Z,71.64
2019-01-31T19:01:54.658Z,72.57
2019-01-31T19:04:21.894Z,73.56
2019-01-31T19:06:49.122Z,73.97
2019-01-31T19:09:16.331Z,73.66
2019-01-31T19:11:43.598Z,74.27
2019-01-31T19:14:10.933Z,76.40
2019-01-31T19:16:38.214Z,76.06
2019-01-31T19:19:05.532Z,76.33
2019-01-31T19:21:32.771Z,76.19
2019-01-31T19:24:00.053Z,77.01
2019-01-31T19:26:27.471Z,77.51
2019-01-31T19:28:54.685Z,77.57
2019-01-31T19:31:22.016Z,78.46
2019-01-31T19:33:51.714Z,78.87
2019-01-31T19:36:18.417Z,79.03
2019-01-31T19:38:45.658Z,78.72
2019-01-31T19:41:12.889Z,79.41
2019-01-31T19:43:40.130Z,79.64
2019-01-31T19:46:16.217Z,79.52
2019-01-31T19:48:36.661Z,79.48
2019-01-31T19:51:04.317Z,79.10
2019-01-31T19:53:31.631Z,79.00
2019-01-31T19:55:58.876Z,78.70
2019-01-31T19:58:26.168Z,79.07
2019-01-31T20:00:53.392Z,79.10
2019-01-31T20:03:20.638Z,78.99
2019-01-31T20:05:47.894Z,78.96
2019-01-31T20:08:15.334Z,79.30
2019-01-31T20:10:42.720Z,79.12
2019-01-31T20:13:09.966Z,79.08
2019-01-31T20:15:37.195Z,79.21
2019-01-31T20:18:04.946Z,79.81
2019-01-31T20:20:32.223Z,79.39
2019-01-31T20:22:59.565Z,79.66
2019-01-31T20:25:27.649Z,79.49
2019-01-31T20:27:54.921Z,80.03
2019-01-31T20:30:24.360Z,80.07
2019-01-31T20:32:51.914Z,80.00
2019-01-31T20:35:19.571Z,79.99
2019-01-31T20:37:46.798Z,79.71
2019-01-31T20:40:16.328Z,79.62
2019-01-31T20:42:43.629Z,79.37
2019-01-31T20:45:11.856Z,78.93
2019-01-31T20:47:39.205Z,79.07
2019-01-31T20:50:10.129Z,79.02
2019-01-31T20:52:37.613Z,79.07
2019-01-31T20:55:06.187Z,78.89
2019-01-31T20:57:33.492Z,78.78
2019-01-31T21:00:00.694Z,78.63
2019-01-31T21:02:27.945Z,78.21
2019-01-31T21:04:55.209Z,78.17
2019-01-31T21:07:22.456Z,78.01
2019-01-31T21:09:49.669Z,77.82
2019-01-31T21:12:17.148Z,77.74
2019-01-31T21:14:44.358Z,78.17
2019-01-31T21:17:11.563Z,78.96
2019-01-31T21:19:38.819Z,78.72
2019-01-31T21:22:06.140Z,79.33
2019-01-31T21:24:33.418Z,79.45
2019-01-31T21:27:00.649Z,80.02
2019-01-31T21:29:27.924Z,79.50
2019-01-31T21:31:55.162Z,79.86
2019-01-31T21:34:23.187Z,79.65
2019-01-31T21:36:50.457Z,79.54
2019-01-31T21:39:17.705Z,79.69
2019-01-31T21:41:44.982Z,80.15
2019-01-31T21:44:12.224Z,80.21
2019-01-31T21:46:39.472Z,79.84
2019-01-31T21:49:06.735Z,78.97
2019-01-31T21:51:37.397Z,78.94
2019-01-31T21:54:04.815Z,78.60
2019-01-31T21:56:32.082Z,78.52
2019-01-31T21:58:59.326Z,78.45
2019-01-31T22:01:26.567Z,78.25
2019-01-31T22:03:53.807Z,77.92
2019-01-31T22:06:22.702Z,77.76
2019-01-31T22:08:50.226Z,77.53
2019-01-31T22:11:17.504Z,78.00
2019-01-31T22:13:44.735Z,77.95
2019-01-31T22:16:12.012Z,77.66
2019-01-31T22:18:39.356Z,77.73
2019-01-31T22:21:06.583Z,77.65
2019-01-31T22:23:33.815Z,77.75
2019-01-31T22:26:01.147Z,77.39
2019-01-31T22:28:28.464Z,77.21
2019-01-31T22:30:55.758Z,77.31
2019-01-31T22:33:23.369Z,77.56
2019-01-31T22:35:50.836Z,77.25
2019-01-31T22:38:18.074Z,76.90
2019-01-31T22:40:45.632Z,77.08
2019-01-31T22:43:12.877Z,76.69
2019-01-31T22:45:40.207Z,77.06
2019-01-31T22:48:07.489Z,77.07
2019-01-31T22:50:34.827Z,76.54
2019-01-31T22:53:02.048Z,76.73
2019-01-31T22:55:29.322Z,76.54
2019-01-31T22:57:56.546Z,76.57
2019-01-31T23:00:32.123Z,76.67
2019-01-31T23:02:59.381Z,76.51
2019-01-31T23:05:26.630Z,76.22
2019-01-31T23:07:54.002Z,76.65
2019-01-31T23:10:21.322Z,76.45
2019-01-31T23:12:48.546Z,76.39
2019-01-31T23:15:18.509Z,76.89
2019-01-31T23:17:45.727Z,76.77
2019-01-31T23:20:13.450Z,76.65
2019-01-31T23:22:40.816Z,77.37
2019-01-31T23:25:08.337Z,77.73
2019-01-31T23:27:35.565Z,77.49
2019-01-31T23:30:05.303Z,77.03
2019-01-31T23:32:32.525Z,77.15
2019-01-31T23:34:59.757Z,77.01
2019-01-31T23:37:27.179Z,77.17
2019-01-31T23:39:54.507Z,76.53
2019-01-31T23:42:21.733Z,76.12
2019-01-31T23:44:48.993Z,76.16
2019-01-31T23:47:16.216Z,76.13
2019-01-31T23:49:43.441Z,75.75
2019-01-31T23:52:11.083Z,76.02
2019-01-31T23:54:38.392Z,75.84
2019-01-31T23:57:05.622Z,75.84
2019-01-31T23:59:32.884Z,76.23
